Time;durP1;ratioP1;P1;durP2;ratioP2;P2;SDS_P1;SDS_P2;PMS_P1;PMS_P2;Temp;Humidity;BMP_temperature;BMP_pressure;BME280_temperature;BME280_humidity;BME280_pressure;Samples;Min_cycle;Max_cycle;Signal;HPM_P1;HPM_P2
2022/06/06 00:00:00;;;;;;;18.40;14.30;;;15.90;99.90;;;;;;5065609;28;20060;-86
2022/06/06 00:02:27;;;;;;;;;;;15.90;99.90;;;;;;5065553;28;20614;-87
2022/06/06 00:04:52;;;;;;;16.48;13.70;;;15.80;99.90;;;;;;5061902;28;20402;-85
2022/06/06 00:07:18;;;;;;;17.17;14.48;;;15.80;99.90;;;;;;5047133;28;20044;-87
2022/06/06 00:09:44;;;;;;;17.05;13.70;;;15.80;99.90;;;;;;5048325;28;20076;-85
2022/06/06 00:12:10;;;;;;;16.77;12.90;;;15.80;99.90;;;;;;5051853;28;20143;-84
2022/06/06 00:14:36;;;;;;;15.85;13.27;;;15.80;99.90;;;;;;5048886;28;20051;-85
2022/06/06 00:17:02;;;;;;;16.60;12.57;;;15.80;99.90;;;;;;5066783;28;20071;-85
2022/06/06 00:19:27;;;;;;;16.17;11.40;;;15.80;99.90;;;;;;5028641;28;20041;-87
2022/06/06 00:21:53;;;;;;;19.88;13.55;;;15.80;99.90;;;;;;5065467;28;20069;-86
2022/06/06 00:24:19;;;;;;;17.75;12.63;;;15.80;99.90;;;;;;5062987;28;20141;-87
2022/06/06 00:26:44;;;;;;;15.68;11.65;;;15.70;99.90;;;;;;5051017;28;20442;-86
2022/06/06 00:29:14;;;;;;;18.00;11.63;;;15.70;99.90;;;;;;5068500;28;20406;-86
2022/06/06 00:37:12;;;;;;;15.70;11.05;;;15.70;99.90;;;;;;5046203;28;20135;-88
2022/06/06 00:39:38;;;;;;;17.35;11.68;;;15.70;99.90;;;;;;5044059;28;20049;-87
2022/06/06 00:42:30;;;;;;;17.38;10.93;;;15.60;99.90;;;;;;5047730;28;20080;-87
2022/06/06 00:45:21;;;;;;;20.30;11.70;;;15.60;99.90;;;;;;5044558;28;20102;-87
2022/06/06 00:47:51;;;;;;;15.40;9.85;;;15.60;99.90;;;;;;5055718;28;20393;-86
2022/06/06 00:50:20;;;;;;;13.75;9.98;;;15.60;99.90;;;;;;5067219;28;20055;-87
2022/06/06 00:52:49;;;;;;;15.60;10.40;;;15.60;99.90;;;;;;5047334;28;20048;-85
2022/06/06 00:55:21;;;;;;;15.95;10.25;;;15.50;99.90;;;;;;5046582;28;20385;-86
2022/06/06 00:57:55;;;;;;;16.15;10.70;;;15.50;99.90;;;;;;5047037;28;20048;-86
2022/06/06 01:00:22;;;;;;;19.23;11.93;;;15.50;99.90;;;;;;5056806;28;20064;-88
2022/06/06 01:02:51;;;;;;;13.82;10.10;;;15.50;99.90;;;;;;5043847;28;20078;-85
2022/06/06 01:05:19;;;;;;;14.85;10.50;;;15.50;99.90;;;;;;5050246;28;20351;-86
2022/06/06 01:07:45;;;;;;;14.18;10.73;;;15.50;99.90;;;;;;5065080;28;20037;-86
2022/06/06 01:10:11;;;;;;;15.02;10.95;;;15.40;99.90;;;;;;5078589;28;20499;-88
2022/06/06 01:12:38;;;;;;;18.98;11.63;;;15.40;99.90;;;;;;5030942;28;20127;-86
2022/06/06 01:15:08;;;;;;;14.65;10.95;;;15.40;99.90;;;;;;5049344;28;20044;-88
2022/06/06 01:18:06;;;;;;;15.43;10.80;;;15.40;99.90;;;;;;5063348;28;20040;-87
2022/06/06 01:20:37;;;;;;;16.17;11.20;;;15.30;99.90;;;;;;5063562;28;20068;-88
2022/06/06 01:23:34;;;;;;;16.58;11.80;;;15.30;99.90;;;;;;5050079;28;20047;-85
2022/06/06 01:26:23;;;;;;;15.65;11.93;;;15.30;99.90;;;;;;5062758;28;20155;-87
2022/06/06 01:29:00;;;;;;;15.55;11.73;;;15.30;99.90;;;;;;5063482;28;20049;-88
2022/06/06 01:31:51;;;;;;;17.63;12.40;;;15.30;99.90;;;;;;5046526;28;20506;-86
2022/06/06 01:34:23;;;;;;;14.77;11.57;;;15.30;99.90;;;;;;5080843;28;20414;-86
2022/06/06 01:36:52;;;;;;;16.88;11.82;;;15.20;99.90;;;;;;5047411;28;20044;-87
2022/06/06 01:39:19;;;;;;;19.77;13.18;;;15.20;99.90;;;;;;5046957;28;20165;-88
2022/06/06 01:42:02;;;;;;;17.83;11.88;;;15.20;99.90;;;;;;5045355;28;20131;-87
2022/06/06 01:44:37;;;;;;;16.60;11.55;;;15.20;99.90;;;;;;5065736;28;20544;-87
2022/06/06 01:47:05;;;;;;;20.20;12.98;;;15.20;99.90;;;;;;5030367;28;20040;-85
2022/06/06 01:49:33;;;;;;;19.88;13.27;;;15.20;99.90;;;;;;5047193;28;20499;-86
2022/06/06 01:52:13;;;;;;;16.73;12.60;;;15.10;99.90;;;;;;5080573;28;20423;-87
2022/06/06 01:54:39;;;;;;;17.70;12.52;;;15.10;99.90;;;;;;5045744;28;20109;-90
2022/06/06 01:57:09;;;;;;;16.38;12.05;;;15.20;99.90;;;;;;5047698;28;20056;-88
2022/06/06 01:59:35;;;;;;;21.55;12.77;;;15.10;99.90;;;;;;5046661;28;20052;-87
2022/06/06 02:02:01;;;;;;;16.02;11.05;;;15.10;99.90;;;;;;5029392;28;20056;-87
2022/06/06 02:04:26;;;;;;;15.75;11.18;;;15.20;99.90;;;;;;5061659;28;20123;-87
2022/06/06 02:06:52;;;;;;;16.77;10.68;;;15.10;99.90;;;;;;5048068;28;20171;-88
2022/06/06 02:09:19;;;;;;;13.73;9.77;;;15.10;99.90;;;;;;5062438;28;20091;-88
2022/06/06 02:11:45;;;;;;;16.98;10.32;;;15.10;99.90;;;;;;5046735;28;20068;-89
2022/06/06 02:14:11;;;;;;;13.55;10.07;;;15.10;99.90;;;;;;5046289;28;20485;-87
2022/06/06 02:16:38;;;;;;;14.07;9.85;;;15.00;99.90;;;;;;5077497;28;20051;-90
2022/06/06 02:19:03;;;;;;;14.00;10.10;;;15.00;99.90;;;;;;5065174;28;20056;-88
2022/06/06 02:21:29;;;;;;;14.00;9.57;;;15.10;99.90;;;;;;5046226;28;20048;-90
2022/06/06 02:23:55;;;;;;;12.55;9.32;;;15.10;99.90;;;;;;5051594;28;20377;-86
2022/06/06 02:26:20;;;;;;;14.15;9.65;;;15.10;99.90;;;;;;5063623;28;20492;-89
2022/06/06 02:28:46;;;;;;;13.73;9.65;;;15.10;99.90;;;;;;5029829;28;20071;-90
2022/06/06 02:31:11;;;;;;;14.38;9.77;;;15.10;99.90;;;;;;5064078;28;20517;-88
2022/06/06 02:33:37;;;;;;;12.02;9.50;;;15.10;99.90;;;;;;5031114;28;20040;-88
2022/06/06 02:36:04;;;;;;;14.75;9.85;;;15.10;99.90;;;;;;5046466;28;20131;-90
2022/06/06 02:38:30;;;;;;;13.38;9.52;;;15.10;99.90;;;;;;5061873;28;20115;-87
2022/06/06 02:41:07;;;;;;;14.30;10.85;;;15.10;99.90;;;;;;5065566;28;20150;-85
2022/06/06 02:43:34;;;;;;;16.17;11.30;;;15.20;99.90;;;;;;5045516;28;20055;-86
2022/06/06 02:46:03;;;;;;;19.80;14.50;;;15.10;99.90;;;;;;5047611;28;20130;-87
2022/06/06 02:48:30;;;;;;;18.10;15.02;;;15.10;99.90;;;;;;5050406;28;20542;-88
2022/06/06 02:50:56;;;;;;;22.42;19.50;;;15.10;99.90;;;;;;5050113;28;20048;-88
2022/06/06 02:53:22;;;;;;;25.73;20.75;;;15.10;99.90;;;;;;5048708;28;20120;-89
2022/06/06 02:55:55;;;;;;;22.75;19.67;;;15.10;99.90;;;;;;5050925;28;20044;-89
2022/06/06 02:58:21;;;;;;;23.40;19.63;;;15.10;99.90;;;;;;5068035;28;20099;-88
2022/06/06 03:00:48;;;;;;;23.70;19.60;;;15.10;99.90;;;;;;5045947;28;20052;-89
2022/06/06 03:03:14;;;;;;;22.77;19.00;;;15.00;99.90;;;;;;5031077;28;20076;-87
2022/06/06 03:05:47;;;;;;;28.10;22.05;;;15.00;99.90;;;;;;5046847;28;20048;-86
2022/06/06 03:08:34;;;;;;;30.35;22.83;;;15.00;99.90;;;;;;5046474;28;20048;-86
2022/06/06 03:11:08;;;;;;;38.05;23.80;;;14.90;99.90;;;;;;5029165;28;20057;-85
2022/06/06 03:13:57;;;;;;;42.65;27.70;;;14.90;99.90;;;;;;5045047;28;20132;-88
2022/06/06 03:22:46;;;;;;;59.58;34.75;;;14.80;99.90;;;;;;5043684;28;20053;-87
2022/06/06 03:25:30;;;;;;;65.15;37.15;;;14.70;99.90;;;;;;5043139;28;20048;-88
2022/06/06 03:28:27;;;;;;;68.72;36.60;;;14.70;99.90;;;;;;5045807;28;20037;-85
2022/06/06 03:31:09;;;;;;;70.97;37.78;;;14.60;99.90;;;;;;5046321;28;20094;-90
2022/06/06 03:33:46;;;;;;;70.97;37.78;;;14.60;99.90;;;;;;5029664;28;20053;-86
2022/06/06 03:36:15;;;;;;;67.00;39.47;;;14.60;99.90;;;;;;5026010;28;20114;-86
2022/06/06 03:39:12;;;;;;;69.25;36.67;;;14.60;99.90;;;;;;5045302;28;20052;-87
2022/06/06 03:42:01;;;;;;;80.28;39.60;;;14.60;99.90;;;;;;5044639;28;20132;-85
2022/06/06 03:44:30;;;;;;;55.22;36.47;;;14.60;99.90;;;;;;5046313;28;20110;-87
2022/06/06 03:47:11;;;;;;;55.33;35.60;;;14.50;99.90;;;;;;5062750;28;20045;-86
2022/06/06 03:50:09;;;;;;;67.38;33.88;;;14.50;99.90;;;;;;5049325;28;20053;-86
2022/06/06 03:52:39;;;;;;;45.05;26.25;;;14.50;99.90;;;;;;5043419;28;20048;-87
2022/06/06 03:55:08;;;;;;;30.30;19.13;;;14.50;99.90;;;;;;5027652;28;20076;-86
2022/06/06 03:57:35;;;;;;;29.30;17.70;;;14.50;99.90;;;;;;5046548;28;20400;-85
2022/06/06 04:00:12;;;;;;;34.47;17.27;;;14.40;99.90;;;;;;5048694;28;20085;-86
2022/06/06 04:02:39;;;;;;;24.90;14.07;;;14.40;99.90;;;;;;5050142;28;20036;-85
2022/06/06 04:05:08;;;;;;;22.88;12.40;;;14.40;99.90;;;;;;5049137;28;20056;-85
2022/06/06 04:07:34;;;;;;;22.20;11.73;;;14.40;99.90;;;;;;5047670;28;20102;-87
2022/06/06 04:10:01;;;;;;;22.45;11.23;;;14.40;99.90;;;;;;5066347;28;20040;-87
2022/06/06 04:13:01;;;;;;;21.75;11.90;;;14.30;99.90;;;;;;5031998;28;20036;-86
2022/06/06 04:15:55;;;;;;;21.02;12.20;;;14.30;99.90;;;;;;5046466;28;20075;-88
2022/06/06 04:18:26;;;;;;;22.98;12.55;;;14.30;99.90;;;;;;5046629;28;20044;-87
2022/06/06 04:21:16;;;;;;;30.05;14.25;;;14.30;99.90;;;;;;5066307;28;20062;-84
2022/06/06 04:23:56;;;;;;;26.83;14.70;;;14.20;99.90;;;;;;5065365;28;20049;-86
2022/06/06 04:26:38;;;;;;;26.90;14.43;;;14.20;99.90;;;;;;5063796;28;20764;-85
2022/06/06 04:29:36;;;;;;;26.48;15.32;;;14.20;99.90;;;;;;5066117;28;20465;-84
2022/06/06 04:32:04;;;;;;;29.52;16.63;;;14.20;99.90;;;;;;5066430;28;20036;-84
2022/06/06 04:35:07;;;;;;;30.60;16.55;;;14.20;99.90;;;;;;5031997;28;20049;-87
2022/06/06 04:37:51;;;;;;;30.52;16.83;;;14.20;99.90;;;;;;5065259;28;20055;-86
2022/06/06 04:40:55;;;;;;;35.63;17.20;;;14.20;99.90;;;;;;5047937;28;20071;-86
2022/06/06 04:43:33;;;;;;;34.03;16.50;;;14.20;99.90;;;;;;5053202;28;20056;-84
2022/06/06 04:46:09;;;;;;;31.48;16.98;;;14.20;99.90;;;;;;5061711;28;20057;-86
2022/06/06 04:48:35;;;;;;;29.80;17.52;;;14.20;99.90;;;;;;5047175;28;20396;-85
2022/06/06 04:51:03;;;;;;;37.97;19.17;;;14.20;99.90;;;;;;5045486;28;20516;-86
2022/06/06 04:53:32;;;;;;;32.53;19.77;;;14.20;99.90;;;;;;5064869;28;20056;-85
2022/06/06 04:55:59;;;;;;;36.20;19.65;;;14.20;99.90;;;;;;5063994;28;20227;-88
2022/06/06 04:58:29;;;;;;;37.97;20.25;;;14.20;99.90;;;;;;5067190;28;20075;-86
2022/06/06 05:00:55;;;;;;;36.63;20.05;;;14.20;99.90;;;;;;5066121;28;20544;-87
2022/06/06 05:03:21;;;;;;;34.70;19.35;;;14.20;99.90;;;;;;5065254;28;20052;-85
2022/06/06 05:06:28;;;;;;;38.08;20.25;;;14.20;99.90;;;;;;5046874;28;20184;-87
2022/06/06 05:09:13;;;;;;;36.92;20.10;;;14.20;99.90;;;;;;5066463;28;20049;-87
2022/06/06 05:11:56;;;;;;;33.67;19.40;;;14.20;99.90;;;;;;5076997;28;20087;-88
2022/06/06 05:14:43;;;;;;;33.45;18.30;;;14.20;99.90;;;;;;5062372;28;20654;-84
2022/06/06 05:17:34;;;;;;;31.45;18.30;;;14.20;99.90;;;;;;5031281;28;20048;-86
2022/06/06 05:20:08;;;;;;;34.38;18.02;;;14.20;99.90;;;;;;5081722;28;20053;-87
2022/06/06 05:22:47;;;;;;;35.72;19.45;;;14.20;99.90;;;;;;5049136;28;20045;-84
2022/06/06 05:25:24;;;;;;;30.60;18.00;;;14.20;99.90;;;;;;5045063;28;20052;-85
2022/06/06 05:28:01;;;;;;;29.33;17.33;;;14.10;99.90;;;;;;5063151;28;20036;-85
2022/06/06 05:30:49;;;;;;;27.70;17.52;;;14.10;99.90;;;;;;5064724;28;20040;-84
2022/06/06 05:33:23;;;;;;;30.60;18.10;;;14.10;99.90;;;;;;5073650;28;20057;-84
2022/06/06 05:36:18;;;;;;;31.75;18.67;;;14.10;99.90;;;;;;5050781;28;20239;-87
2022/06/06 05:39:13;;;;;;;29.77;17.70;;;14.20;99.90;;;;;;5046122;28;20767;-86
2022/06/06 05:42:16;;;;;;;31.80;17.52;;;14.20;99.90;;;;;;5046207;28;20048;-86
2022/06/06 05:44:52;;;;;;;28.92;18.02;;;14.20;99.90;;;;;;5062446;28;20127;-84
2022/06/06 05:47:35;;;;;;;30.17;16.10;;;14.20;99.90;;;;;;5064699;28;20052;-85
2022/06/06 05:50:15;;;;;;;28.00;15.95;;;14.20;99.90;;;;;;5064880;28;20044;-85
2022/06/06 05:53:17;;;;;;;28.73;16.35;;;14.20;99.90;;;;;;5062778;28;20082;-82
2022/06/06 05:56:09;;;;;;;27.65;16.75;;;14.30;99.90;;;;;;5062151;28;20139;-86
2022/06/06 05:58:47;;;;;;;29.25;17.63;;;14.30;99.90;;;;;;5045190;28;20061;-85
2022/06/06 06:01:34;;;;;;;34.20;18.05;;;14.30;99.90;;;;;;5064730;28;20393;-83
2022/06/06 06:04:33;;;;;;;31.63;18.60;;;14.30;99.90;;;;;;5064711;28;20074;-82
2022/06/06 06:07:02;;;;;;;33.08;18.80;;;14.30;99.90;;;;;;5048770;28;20397;-84
2022/06/06 06:09:49;;;;;;;29.60;17.83;;;14.30;99.90;;;;;;5059736;28;20076;-83
2022/06/06 06:12:30;;;;;;;32.67;17.90;;;14.30;99.90;;;;;;5046840;28;20052;-82
2022/06/06 06:15:02;;;;;;;;;;;14.30;99.90;;;;;;5049615;28;20036;-84
2022/06/06 06:17:31;;;;;;;31.92;17.52;;;14.20;99.90;;;;;;5079739;28;20338;-85
2022/06/06 06:20:10;;;;;;;29.92;17.88;;;14.30;99.90;;;;;;5030888;28;20036;-83
2022/06/06 06:22:43;;;;;;;31.50;17.88;;;14.30;99.90;;;;;;5048349;28;20066;-84
2022/06/06 06:25:09;;;;;;;32.88;17.48;;;14.40;99.90;;;;;;5032036;28;20499;-83
2022/06/06 06:27:36;;;;;;;30.23;17.77;;;14.30;99.90;;;;;;5068259;28;20048;-86
2022/06/06 06:30:04;;;;;;;29.65;17.80;;;14.40;99.90;;;;;;5050639;28;20040;-84
2022/06/06 06:32:56;;;;;;;27.60;16.67;;;14.40;99.90;;;;;;5049583;28;20037;-86
2022/06/06 06:35:37;;;;;;;26.20;15.05;;;14.40;99.90;;;;;;5055450;28;20088;-85
2022/06/06 06:38:47;;;;;;;24.40;15.18;;;14.60;99.90;;;;;;5050498;28;20044;-89
2022/06/06 06:41:13;;;;;;;25.42;14.40;;;14.80;99.90;;;;;;5050550;28;20076;-83
2022/06/06 06:44:09;;;;;;;23.27;13.65;;;15.00;99.90;;;;;;5050866;28;20961;-87
2022/06/06 06:46:48;;;;;;;23.95;13.40;;;15.20;99.90;;;;;;5031214;28;20113;-87
2022/06/06 06:49:34;;;;;;;21.30;12.15;;;15.30;99.90;;;;;;5029624;28;20046;-86
2022/06/06 06:52:25;;;;;;;22.90;12.48;;;15.40;99.90;;;;;;5052956;28;20098;-93
2022/06/06 06:55:19;;;;;;;20.48;11.63;;;15.50;99.90;;;;;;5069489;28;20072;-92
2022/06/06 06:58:15;;;;;;;20.38;12.25;;;15.50;99.90;;;;;;5068943;28;20103;-91
2022/06/06 07:00:52;;;;;;;20.83;12.63;;;15.60;99.90;;;;;;5085623;28;20510;-93
2022/06/06 07:09:56;;;;;;;16.65;10.57;;;15.80;99.90;;;;;;5066304;28;20053;-87
2022/06/06 07:12:31;;;;;;;17.85;10.75;;;15.90;99.90;;;;;;5030115;28;20067;-88
2022/06/06 07:15:18;;;;;;;18.90;11.30;;;15.80;99.90;;;;;;5050858;28;20044;-86
2022/06/06 07:17:53;;;;;;;17.50;10.43;;;15.80;99.90;;;;;;5047941;28;20432;-88
2022/06/06 07:20:20;;;;;;;16.73;10.75;;;15.80;99.90;;;;;;5052156;28;20059;-90
2022/06/06 07:23:01;;;;;;;18.67;10.95;;;15.70;99.90;;;;;;5051489;28;20044;-90
2022/06/06 07:25:38;;;;;;;17.83;11.20;;;15.80;99.90;;;;;;5049033;28;20049;-87
2022/06/06 07:28:09;;;;;;;18.13;11.65;;;15.90;99.90;;;;;;5048596;28;20649;-89
2022/06/06 07:30:41;;;;;;;20.67;13.52;;;15.90;99.90;;;;;;5032445;28;20441;-88
2022/06/06 07:33:40;;;;;;;18.13;12.10;;;16.00;99.90;;;;;;5047316;28;20396;-86
2022/06/06 07:36:20;;;;;;;18.73;12.10;;;16.00;99.90;;;;;;5051689;28;20056;-87
2022/06/06 07:39:15;;;;;;;18.38;12.57;;;16.10;99.90;;;;;;5081080;28;20044;-88
2022/06/06 07:41:49;;;;;;;18.63;11.75;;;16.10;99.90;;;;;;5056723;28;20059;-89
2022/06/06 07:44:43;;;;;;;19.70;12.75;;;16.00;99.90;;;;;;5082676;28;20045;-87
2022/06/06 07:47:27;;;;;;;18.85;12.82;;;16.00;99.90;;;;;;5067656;28;20036;-86
2022/06/06 07:50:04;;;;;;;20.88;13.40;;;16.00;99.90;;;;;;5064224;28;20057;-87
2022/06/06 07:52:50;;;;;;;20.98;13.05;;;16.00;99.90;;;;;;5047999;28;20053;-87
2022/06/06 07:55:39;;;;;;;23.00;14.55;;;16.00;99.90;;;;;;5048844;28;20420;-87
2022/06/06 07:58:23;;;;;;;24.48;15.52;;;16.20;99.90;;;;;;5080619;28;20052;-91
2022/06/06 08:01:08;;;;;;;22.33;15.90;;;16.20;99.90;;;;;;5067006;28;20059;-88
2022/06/06 08:03:45;;;;;;;24.05;15.70;;;16.20;99.90;;;;;;5065924;28;20048;-86
2022/06/06 08:06:32;;;;;;;21.20;14.10;;;16.30;99.90;;;;;;5049125;28;20054;-88
2022/06/06 08:09:27;;;;;;;16.90;11.43;;;16.50;99.90;;;;;;5032686;28;20048;-88
2022/06/06 08:11:55;;;;;;;16.23;11.18;;;16.60;99.90;;;;;;5019840;28;20500;-87
2022/06/06 08:14:47;;;;;;;14.90;10.93;;;16.80;99.90;;;;;;5031964;28;20041;-88
2022/06/06 08:17:35;;;;;;;14.65;10.73;;;17.10;99.90;;;;;;5066171;28;20119;-90
2022/06/06 08:20:17;;;;;;;15.88;11.00;;;17.10;99.90;;;;;;5047816;28;20099;-88
2022/06/06 08:22:44;;;;;;;13.05;8.57;;;17.10;99.90;;;;;;5062613;28;20094;-90
2022/06/06 08:25:13;;;;;;;12.27;8.20;;;17.30;99.90;;;;;;5047597;28;20047;-86
2022/06/06 08:27:46;;;;;;;12.30;6.95;;;17.40;99.90;;;;;;5047654;28;20075;-88
2022/06/06 08:30:14;;;;;;;9.68;5.63;;;17.30;99.90;;;;;;5051045;28;20143;-85
2022/06/06 08:32:39;;;;;;;11.55;6.68;;;17.10;99.90;;;;;;5048102;28;20051;-85
2022/06/06 08:35:05;;;;;;;12.27;7.68;;;16.90;99.90;;;;;;5066561;28;20408;-89
2022/06/06 08:38:09;;;;;;;11.25;6.00;;;16.70;99.90;;;;;;5064191;28;20442;-86
2022/06/06 08:40:52;;;;;;;11.25;6.82;;;16.70;99.90;;;;;;5081842;28;20094;-88
2022/06/06 08:43:36;;;;;;;10.88;6.65;;;16.80;99.90;;;;;;5064414;28;20131;-88
2022/06/06 08:46:30;;;;;;;12.10;6.05;;;16.90;99.90;;;;;;5030870;28;20053;-91
2022/06/06 08:52:25;;;;;;;8.55;4.32;;;17.20;99.90;;;;;;5065493;28;20056;-90
2022/06/06 08:55:27;;;;;;;7.22;3.20;;;17.30;99.90;;;;;;5030565;28;20063;-87
2022/06/06 08:58:24;;;;;;;6.97;3.13;;;17.50;99.90;;;;;;5079352;28;20059;-89
2022/06/06 09:01:05;;;;;;;7.50;3.75;;;17.50;99.90;;;;;;5027182;28;20339;-87
2022/06/06 09:04:31;;;;;;;8.23;3.53;;;17.50;99.90;;;;;;5065554;28;20049;-88
2022/06/06 09:07:18;;;;;;;8.48;3.10;;;17.40;99.90;;;;;;5004743;28;20041;-89
2022/06/06 09:10:13;;;;;;;7.28;3.50;;;17.50;99.90;;;;;;4986971;28;20067;-88
2022/06/06 09:12:57;;;;;;;8.07;3.45;;;17.50;99.90;;;;;;5004058;28;20053;-86
2022/06/06 09:15:35;;;;;;;8.57;3.30;;;17.60;99.90;;;;;;4989601;28;20136;-86
2022/06/06 09:18:19;;;;;;;8.18;3.58;;;17.70;99.90;;;;;;5006045;28;20096;-87
2022/06/06 09:21:21;;;;;;;8.27;3.50;;;17.80;99.90;;;;;;4989731;28;20447;-91
2022/06/06 09:24:05;;;;;;;7.32;3.35;;;17.70;99.90;;;;;;5006559;28;20072;-86
2022/06/06 09:26:37;;;;;;;8.23;3.25;;;17.60;99.90;;;;;;5022490;28;20378;-92
2022/06/06 09:29:40;;;;;;;6.95;3.13;;;17.80;99.90;;;;;;5022635;28;20057;-89
2022/06/06 09:32:27;;;;;;;6.78;3.00;;;18.00;99.90;;;;;;5023353;28;20053;-88
2022/06/06 09:35:14;;;;;;;6.13;3.10;;;18.10;99.90;;;;;;5005850;28;20100;-91
2022/06/06 09:37:42;;;;;;;8.60;3.35;;;18.10;99.90;;;;;;5003938;28;20050;-85
2022/06/06 09:40:17;;;;;;;8.48;3.55;;;18.00;99.90;;;;;;5011797;28;20407;-90
2022/06/06 09:43:04;;;;;;;8.00;3.80;;;18.00;99.90;;;;;;5064353;28;20835;-89
2022/06/06 09:45:34;;;;;;;7.40;3.72;;;18.00;99.90;;;;;;5046759;28;20048;-88
2022/06/06 09:48:42;;;;;;;7.82;4.00;;;18.00;99.90;;;;;;5065635;28;20041;-88
2022/06/06 09:51:32;;;;;;;7.78;3.90;;;18.10;99.90;;;;;;5021540;28;20060;-89
2022/06/06 10:00:24;;;;;;;6.75;3.25;;;17.90;99.90;;;;;;5048706;28;20770;-89
2022/06/06 10:03:04;;;;;;;8.40;3.22;;;17.80;99.90;;;;;;5051635;28;20055;-88
2022/06/06 10:06:06;;;;;;;5.72;2.67;;;17.90;99.90;;;;;;5051154;28;20487;-90
2022/06/06 10:09:13;;;;;;;8.20;3.35;;;18.10;99.90;;;;;;5068517;28;20064;-89
2022/06/06 10:11:58;;;;;;;7.30;2.88;;;18.10;99.90;;;;;;5051481;28;20472;-85
2022/06/06 10:14:49;;;;;;;6.72;2.47;;;18.00;99.90;;;;;;5049322;28;20119;-86
2022/06/06 10:17:29;;;;;;;4.63;2.10;;;17.70;99.90;;;;;;5069039;28;20137;-86
2022/06/06 10:19:54;;;;;;;6.45;2.15;;;17.60;99.90;;;;;;5034953;28;20047;-87
2022/06/06 10:22:32;;;;;;;6.50;2.70;;;17.50;99.90;;;;;;5050527;28;20044;-88
2022/06/06 10:25:16;;;;;;;6.63;3.13;;;17.60;99.90;;;;;;5065785;28;20053;-88
2022/06/06 10:28:15;;;;;;;6.00;3.08;;;17.60;99.90;;;;;;5063412;28;20087;-89
2022/06/06 10:30:59;;;;;;;6.35;2.90;;;17.90;99.90;;;;;;5029965;28;20094;-91
2022/06/06 10:33:52;;;;;;;7.63;2.80;;;18.00;99.90;;;;;;5049036;28;20045;-90
2022/06/06 10:36:46;;;;;;;6.00;2.70;;;17.80;99.90;;;;;;4994030;28;20076;-88
2022/06/06 10:39:29;;;;;;;7.97;3.30;;;17.70;99.90;;;;;;4990568;28;20141;-89
2022/06/06 10:42:12;;;;;;;6.65;3.30;;;17.60;99.90;;;;;;4989742;28;20050;-83
2022/06/06 10:45:23;;;;;;;6.85;3.30;;;17.50;99.90;;;;;;4989686;28;20054;-92
2022/06/06 10:48:23;;;;;;;6.38;3.00;;;17.50;99.90;;;;;;4993550;28;20180;-89
2022/06/06 10:53:41;;;;;;;5.88;3.22;;;17.20;99.90;;;;;;5006508;28;20410;-89
2022/06/06 10:56:43;;;;;;;5.55;3.00;;;17.10;99.90;;;;;;5006560;28;20061;-91
2022/06/06 10:59:17;;;;;;;7.30;3.13;;;17.00;99.90;;;;;;4990409;28;20116;-93
2022/06/06 11:02:26;;;;;;;8.00;3.50;;;16.90;99.90;;;;;;4986848;28;20058;-90
2022/06/06 11:05:13;;;;;;;6.30;3.50;;;16.80;99.90;;;;;;4972505;28;20116;-89
2022/06/06 11:08:04;;;;;;;7.32;3.63;;;16.70;99.90;;;;;;5003657;28;20058;-89
2022/06/06 11:10:32;;;;;;;;;;;16.50;99.90;;;;;;4987934;28;20452;-90
2022/06/06 11:13:14;;;;;;;6.38;2.45;;;16.20;99.90;;;;;;5028367;28;19924;-91
2022/06/06 11:15:49;;;;;;;4.40;2.25;;;16.10;99.90;;;;;;5065816;28;20052;-88
2022/06/06 11:18:47;;;;;;;6.32;2.22;;;16.00;99.90;;;;;;5068299;28;20098;-89
2022/06/06 11:21:21;;;;;;;4.72;2.13;;;15.80;99.90;;;;;;5050189;28;20396;-92
2022/06/06 11:24:11;;;;;;;5.18;2.30;;;15.70;99.90;;;;;;5050085;28;20049;-90
2022/06/06 11:27:06;;;;;;;4.80;2.15;;;15.70;99.90;;;;;;5030867;28;20080;-90
2022/06/06 11:29:38;;;;;;;4.65;2.30;;;15.70;99.90;;;;;;5067896;28;20147;-93
2022/06/06 11:32:42;;;;;;;4.72;2.60;;;15.60;99.90;;;;;;5050084;28;20036;-91
2022/06/06 11:35:17;;;;;;;5.82;2.60;;;15.70;99.90;;;;;;5040625;28;20060;-88
2022/06/06 11:38:23;;;;;;;6.28;2.70;;;15.70;99.90;;;;;;5067681;28;20288;-90
2022/06/06 11:41:11;;;;;;;4.40;2.28;;;15.90;99.90;;;;;;5049660;28;20370;-90
2022/06/06 11:43:55;;;;;;;4.38;2.20;;;16.20;99.90;;;;;;5049612;28;20047;-90
2022/06/06 11:46:45;;;;;;;4.65;2.30;;;16.60;99.90;;;;;;5031012;28;20385;-91
2022/06/06 11:49:16;;;;;;;5.80;2.38;;;16.90;99.90;;;;;;5049787;28;20056;-88
2022/06/06 11:52:10;;;;;;;6.88;2.80;;;17.10;99.90;;;;;;5032111;28;20127;-86
2022/06/06 11:54:54;;;;;;;7.25;3.33;;;17.20;99.90;;;;;;5064993;28;20056;-89
2022/06/06 11:57:30;;;;;;;7.30;3.28;;;17.30;99.90;;;;;;5048222;28;20037;-90
2022/06/06 12:00:11;;;;;;;7.30;2.80;;;17.40;99.90;;;;;;5046178;28;20070;-92
2022/06/06 12:02:55;;;;;;;4.85;2.20;;;17.50;99.90;;;;;;5049494;28;20044;-90
2022/06/06 12:05:56;;;;;;;5.18;2.60;;;17.70;99.90;;;;;;5047593;28;20062;-90
2022/06/06 12:08:45;;;;;;;5.38;2.30;;;17.80;99.90;;;;;;5048754;28;20119;-87
2022/06/06 12:11:50;;;;;;;5.25;2.05;;;17.80;99.90;;;;;;5066475;28;20170;-87
2022/06/06 12:14:37;;;;;;;5.65;1.60;;;18.00;99.90;;;;;;5032298;28;20044;-93
2022/06/06 12:17:19;;;;;;;4.03;1.65;;;18.00;99.90;;;;;;5048751;28;20098;-92
2022/06/06 12:19:56;;;;;;;3.92;2.03;;;18.10;99.90;;;;;;5031013;28;20052;-88
2022/06/06 12:22:55;;;;;;;3.20;1.60;;;18.10;99.90;;;;;;5033197;28;20049;-89
2022/06/06 12:25:44;;;;;;;5.32;1.30;;;18.20;99.90;;;;;;5030484;28;20415;-87
2022/06/06 12:28:35;;;;;;;1.80;1.10;;;18.20;99.90;;;;;;5049031;28;20165;-92
2022/06/06 12:31:09;;;;;;;2.65;1.00;;;18.10;99.90;;;;;;5067541;28;20116;-90
2022/06/06 12:33:45;;;;;;;2.67;1.00;;;18.20;99.90;;;;;;5032197;28;20053;-91
2022/06/06 12:36:32;;;;;;;1.98;1.00;;;18.20;99.90;;;;;;5049260;28;20085;-91
2022/06/06 12:39:23;;;;;;;3.28;1.23;;;18.10;99.90;;;;;;5082834;28;20386;-91
2022/06/06 12:41:48;;;;;;;;;;;18.20;99.90;;;;;;5083798;28;20053;-92
2022/06/06 12:44:24;;;;;;;3.75;1.60;;;18.10;99.90;;;;;;5048370;28;19920;-87
2022/06/06 12:47:06;;;;;;;4.85;1.65;;;18.20;99.90;;;;;;5049821;28;20057;-88
2022/06/06 12:50:11;;;;;;;3.47;1.60;;;18.10;99.90;;;;;;5032788;28;20070;-90
2022/06/06 12:53:03;;;;;;;4.40;1.70;;;18.20;99.90;;;;;;5030314;28;20068;-89
2022/06/06 12:58:55;;;;;;;5.75;2.22;;;18.20;99.90;;;;;;5066397;28;20049;-91
2022/06/06 13:01:38;;;;;;;4.68;1.90;;;18.20;99.90;;;;;;5048707;28;20049;-88
2022/06/06 13:04:09;;;;;;;3.42;1.63;;;18.40;99.90;;;;;;5064555;28;20052;-91
2022/06/06 13:06:59;;;;;;;4.40;1.90;;;18.50;99.90;;;;;;5048169;28;20044;-94
2022/06/06 13:09:38;;;;;;;5.72;2.10;;;18.50;99.90;;;;;;5029989;28;20098;-91
2022/06/06 13:12:17;;;;;;;4.30;1.85;;;18.50;99.90;;;;;;5062432;28;20135;-89
2022/06/06 13:15:14;;;;;;;5.40;2.30;;;18.50;99.90;;;;;;5032400;28;20382;-93
2022/06/06 13:18:01;;;;;;;4.05;1.55;;;18.50;99.90;;;;;;5047551;28;20052;-88
2022/06/06 13:20:38;;;;;;;2.40;1.33;;;18.40;99.90;;;;;;5045994;28;20048;-93
2022/06/06 13:23:03;;;;;;;4.10;1.45;;;18.40;99.90;;;;;;5049268;28;20072;-90
2022/06/06 13:25:57;;;;;;;5.43;1.50;;;18.30;99.90;;;;;;5047630;28;20044;-88
2022/06/06 13:28:39;;;;;;;5.00;1.60;;;18.20;99.90;;;;;;5029894;28;20056;-89
2022/06/06 13:31:34;;;;;;;3.42;1.67;;;18.00;99.90;;;;;;5032584;28;20118;-87
2022/06/06 13:34:37;;;;;;;4.53;1.42;;;17.90;99.90;;;;;;5044335;28;20056;-93
2022/06/06 13:37:16;;;;;;;5.20;2.20;;;17.90;99.90;;;;;;5046194;28;20127;-87
2022/06/06 13:40:10;;;;;;;4.07;1.80;;;17.70;99.90;;;;;;5030943;28;20129;-90
2022/06/06 13:43:04;;;;;;;4.47;2.00;;;17.60;99.90;;;;;;5065144;28;20037;-90
2022/06/06 13:46:01;;;;;;;5.43;2.28;;;17.60;99.90;;;;;;5047871;28;20044;-92
2022/06/06 13:48:56;;;;;;;5.80;2.42;;;17.40;99.90;;;;;;5064451;28;20583;-94
2022/06/06 13:51:50;;;;;;;5.72;2.42;;;17.30;99.90;;;;;;5045656;28;20059;-90
2022/06/06 13:54:29;;;;;;;4.70;2.63;;;17.20;99.90;;;;;;5063689;28;20277;-88
2022/06/06 13:57:35;;;;;;;6.03;3.10;;;17.10;99.90;;;;;;5065408;28;20452;-89
2022/06/06 14:00:07;;;;;;;6.65;3.30;;;16.90;99.90;;;;;;4971901;28;20493;-86
2022/06/06 14:02:54;;;;;;;5.90;3.20;;;16.70;99.90;;;;;;4966911;28;20461;-90
2022/06/06 14:05:31;;;;;;;6.55;3.65;;;16.50;99.90;;;;;;4998452;28;20471;-89
2022/06/06 14:08:09;;;;;;;6.35;3.72;;;16.30;99.90;;;;;;4967888;28;20054;-89
2022/06/06 14:10:46;;;;;;;6.82;4.25;;;16.20;99.90;;;;;;4966851;28;20042;-88
2022/06/06 14:13:41;;;;;;;6.30;4.20;;;16.20;99.90;;;;;;4950417;28;20474;-90
2022/06/06 14:16:18;;;;;;;6.90;4.97;;;16.10;99.90;;;;;;4951465;28;20109;-91